Captain Cook, HI

7:06 AM HST on February 12, 2016 (GMT -1000)
Halemalu | | Change Station
CLOSE
Current Station
Personal Weather Station
Location: Captain Cook, HI
Elevation: 1656 ft
Nearby Weather Stations

Elev 1656 ft 19.50 °N, 155.91 °W | Updated 9 seconds ago

Clear
Clear
59.9 °F
Feels Like 59.9 °F
N
1.0
Wind Variable Wind from NW
Gusts 3.0 mph

Today
High -- | Low -- °F
--% Chance of Precip.
Yesterday
High -- | Low -- °F
Precip. -- in
Pressure 29.99 in
Visibility 10.0 miles
Clouds Clear
Dew Point 53 °F
Humidity 78%
Rainfall 0.00 in
Snow Depth Not available.
6:54 AM 6:21 PM
Waxing Crescent, 22% visible
METAR PHKO 121653Z 11008KT 10SM CLR 21/16 A2999 RMK AO2 SLP155 T02110161
Pressure 29.99 in
Visibility 10.0 miles
Clouds Clear
Dew Point 53 °F
Humidity 78%
Rainfall 0.00 in
Snow Depth Not available.
6:54 AM 6:21 PM
Waxing Crescent, 22% visible
METAR PHKO 121653Z 11008KT 10SM CLR 21/16 A2999 RMK AO2 SLP155 T02110161

10-Day Weather Forecast

Almanac

Astronomy

Feb. 12, 2016 Rise Set
Actual Time
Civil Twilight
Nautical Twilight
Astronomical Twilight
Moon
Length of Visible Light
Length of Day
Tomorrow will be .
, % of the Moon is Illuminated

Today's Extremes

State Highs State Lows

Community

WunderPhotos

Upload Photos

1,892,353 photos uploaded!

WunderBlog® & News

Nearby

Air Quality

  Air Quality AQ Index Pollutant
Not available.

Snow Depth

Station Depth Elevation

Earthquake Activity

City Distance Mag. Time & Date
Minimum magnitude displayed is 2.5.

Coastal Water Temperatures

Place Temperature

Stations

Nearby Weather Stations

Station Location Temp. Windchill Dew Point Humidity Wind Precip. Elev Updated Type
                   

Watches & Warnings

There are currently no watches in effect.